sensor_id;sensor_type;location;lat;lon;timestamp;temperature;humidity
35668;DHT22;22158;59.280;17.806;2022-07-29T00:01:21;12.20;99.90
35668;DHT22;22158;59.280;17.806;2022-07-29T00:03:47;12.10;99.90
35668;DHT22;22158;59.280;17.806;2022-07-29T00:06:14;12.00;99.90
35668;DHT22;22158;59.280;17.806;2022-07-29T00:08:40;12.00;99.90
35668;DHT22;22158;59.280;17.806;2022-07-29T00:11:05;12.00;99.90
35668;DHT22;22158;59.280;17.806;2022-07-29T00:13:31;12.00;99.90
35668;DHT22;22158;59.280;17.806;2022-07-29T00:15:57;11.90;99.90
35668;DHT22;22158;59.280;17.806;2022-07-29T00:18:22;11.80;99.90
35668;DHT22;22158;59.280;17.806;2022-07-29T00:20:48;11.80;99.90
35668;DHT22;22158;59.280;17.806;2022-07-29T00:23:14;11.70;99.90
35668;DHT22;22158;59.280;17.806;2022-07-29T00:25:39;11.70;99.90
35668;DHT22;22158;59.280;17.806;2022-07-29T00:28:05;11.70;99.90
35668;DHT22;22158;59.280;17.806;2022-07-29T00:30:31;11.70;99.90
35668;DHT22;22158;59.280;17.806;2022-07-29T00:32:57;11.70;99.90
35668;DHT22;22158;59.280;17.806;2022-07-29T00:35:22;11.70;99.90
35668;DHT22;22158;59.280;17.806;2022-07-29T00:38:07;11.60;99.90
35668;DHT22;22158;59.280;17.806;2022-07-29T00:40:32;11.60;99.90
35668;DHT22;22158;59.280;17.806;2022-07-29T00:42:58;11.50;99.90
35668;DHT22;22158;59.280;17.806;2022-07-29T00:45:24;11.50;99.90
35668;DHT22;22158;59.280;17.806;2022-07-29T00:47:49;11.50;99.90
35668;DHT22;22158;59.280;17.806;2022-07-29T00:50:16;11.40;99.90
35668;DHT22;22158;59.280;17.806;2022-07-29T00:52:42;11.40;99.90
35668;DHT22;22158;59.280;17.806;2022-07-29T00:55:13;11.40;99.90
35668;DHT22;22158;59.280;17.806;2022-07-29T00:57:41;11.30;99.90
35668;DHT22;22158;59.280;17.806;2022-07-29T01:00:11;11.30;99.90
35668;DHT22;22158;59.280;17.806;2022-07-29T01:02:37;11.30;99.90
35668;DHT22;22158;59.280;17.806;2022-07-29T01:05:06;11.20;99.90
35668;DHT22;22158;59.280;17.806;2022-07-29T01:07:35;11.20;99.90
35668;DHT22;22158;59.280;17.806;2022-07-29T01:10:04;11.20;99.90
35668;DHT22;22158;59.280;17.806;2022-07-29T01:12:32;11.20;99.90
35668;DHT22;22158;59.280;17.806;2022-07-29T01:15:00;11.10;99.90
35668;DHT22;22158;59.280;17.806;2022-07-29T01:25:37;11.00;99.90
35668;DHT22;22158;59.280;17.806;2022-07-29T01:30:58;10.90;99.90
35668;DHT22;22158;59.280;17.806;2022-07-29T01:33:25;10.90;99.90
35668;DHT22;22158;59.280;17.806;2022-07-29T01:36:13;10.90;99.90
35668;DHT22;22158;59.280;17.806;2022-07-29T01:38:44;10.90;99.90
35668;DHT22;22158;59.280;17.806;2022-07-29T01:41:14;10.90;99.90
35668;DHT22;22158;59.280;17.806;2022-07-29T01:43:49;10.90;99.90
35668;DHT22;22158;59.280;17.806;2022-07-29T01:46:35;10.90;99.90
35668;DHT22;22158;59.280;17.806;2022-07-29T01:49:13;10.90;99.90
35668;DHT22;22158;59.280;17.806;2022-07-29T01:51:57;10.80;99.90
35668;DHT22;22158;59.280;17.806;2022-07-29T01:54:35;10.80;99.90
35668;DHT22;22158;59.280;17.806;2022-07-29T01:57:04;10.70;99.90
35668;DHT22;22158;59.280;17.806;2022-07-29T01:59:33;10.70;99.90
35668;DHT22;22158;59.280;17.806;2022-07-29T02:02:01;10.60;99.90
35668;DHT22;22158;59.280;17.806;2022-07-29T02:04:28;10.60;99.90
35668;DHT22;22158;59.280;17.806;2022-07-29T02:06:58;10.60;99.90
35668;DHT22;22158;59.280;17.806;2022-07-29T02:09:25;10.60;99.90
35668;DHT22;22158;59.280;17.806;2022-07-29T02:11:53;10.60;99.90
35668;DHT22;22158;59.280;17.806;2022-07-29T02:14:22;10.60;99.90
35668;DHT22;22158;59.280;17.806;2022-07-29T02:16:52;10.60;99.90
35668;DHT22;22158;59.280;17.806;2022-07-29T02:19:20;10.60;99.90
35668;DHT22;22158;59.280;17.806;2022-07-29T02:21:47;10.60;99.90
35668;DHT22;22158;59.280;17.806;2022-07-29T02:24:14;10.50;99.90
35668;DHT22;22158;59.280;17.806;2022-07-29T02:26:43;10.50;99.90
35668;DHT22;22158;59.280;17.806;2022-07-29T02:29:10;10.50;99.90
35668;DHT22;22158;59.280;17.806;2022-07-29T02:31:38;10.40;99.90
35668;DHT22;22158;59.280;17.806;2022-07-29T02:34:06;10.40;99.90
35668;DHT22;22158;59.280;17.806;2022-07-29T02:36:34;10.40;99.90
35668;DHT22;22158;59.280;17.806;2022-07-29T02:39:01;10.30;99.90
35668;DHT22;22158;59.280;17.806;2022-07-29T02:41:30;10.30;99.90
35668;DHT22;22158;59.280;17.806;2022-07-29T02:44:02;10.30;99.90
35668;DHT22;22158;59.280;17.806;2022-07-29T02:46:31;10.30;99.90
35668;DHT22;22158;59.280;17.806;2022-07-29T02:49:07;10.40;99.90
35668;DHT22;22158;59.280;17.806;2022-07-29T02:51:49;10.40;99.90
35668;DHT22;22158;59.280;17.806;2022-07-29T02:54:44;10.40;99.90
35668;DHT22;22158;59.280;17.806;2022-07-29T02:57:25;10.40;99.90
35668;DHT22;22158;59.280;17.806;2022-07-29T02:59:57;10.40;99.90
35668;DHT22;22158;59.280;17.806;2022-07-29T03:02:25;10.40;99.90
35668;DHT22;22158;59.280;17.806;2022-07-29T03:04:53;10.50;99.90
35668;DHT22;22158;59.280;17.806;2022-07-29T03:07:21;10.50;99.90
35668;DHT22;22158;59.280;17.806;2022-07-29T03:09:47;10.50;99.90
35668;DHT22;22158;59.280;17.806;2022-07-29T03:12:14;10.50;99.90
35668;DHT22;22158;59.280;17.806;2022-07-29T03:14:42;10.50;99.90
35668;DHT22;22158;59.280;17.806;2022-07-29T03:17:09;10.50;99.90
35668;DHT22;22158;59.280;17.806;2022-07-29T03:19:35;10.50;99.90
35668;DHT22;22158;59.280;17.806;2022-07-29T03:22:01;10.50;99.90
35668;DHT22;22158;59.280;17.806;2022-07-29T03:24:36;10.60;99.90
35668;DHT22;22158;59.280;17.806;2022-07-29T03:27:03;10.70;99.90
35668;DHT22;22158;59.280;17.806;2022-07-29T03:29:29;10.70;99.90
35668;DHT22;22158;59.280;17.806;2022-07-29T03:31:55;10.70;99.90
35668;DHT22;22158;59.280;17.806;2022-07-29T03:34:21;10.70;99.90
35668;DHT22;22158;59.280;17.806;2022-07-29T03:36:47;10.80;99.90
35668;DHT22;22158;59.280;17.806;2022-07-29T03:39:16;10.80;99.90
35668;DHT22;22158;59.280;17.806;2022-07-29T03:41:44;10.90;99.90
35668;DHT22;22158;59.280;17.806;2022-07-29T03:44:12;11.00;99.90
35668;DHT22;22158;59.280;17.806;2022-07-29T03:46:39;11.10;99.90
35668;DHT22;22158;59.280;17.806;2022-07-29T03:49:08;11.10;99.90
35668;DHT22;22158;59.280;17.806;2022-07-29T03:51:35;11.20;99.90
35668;DHT22;22158;59.280;17.806;2022-07-29T03:54:02;11.20;99.90
35668;DHT22;22158;59.280;17.806;2022-07-29T03:56:28;11.30;99.90
35668;DHT22;22158;59.280;17.806;2022-07-29T03:58:54;11.40;99.90
35668;DHT22;22158;59.280;17.806;2022-07-29T04:01:21;11.40;99.90
35668;DHT22;22158;59.280;17.806;2022-07-29T04:03:48;11.50;99.90
35668;DHT22;22158;59.280;17.806;2022-07-29T04:06:14;11.50;99.90
35668;DHT22;22158;59.280;17.806;2022-07-29T04:08:39;11.60;99.90
35668;DHT22;22158;59.280;17.806;2022-07-29T04:11:05;11.60;99.90
35668;DHT22;22158;59.280;17.806;2022-07-29T04:13:32;11.70;99.90
35668;DHT22;22158;59.280;17.806;2022-07-29T04:15:58;11.80;99.90
35668;DHT22;22158;59.280;17.806;2022-07-29T04:18:24;11.90;99.90
35668;DHT22;22158;59.280;17.806;2022-07-29T04:20:50;11.90;99.90
35668;DHT22;22158;59.280;17.806;2022-07-29T04:23:15;12.00;99.90
35668;DHT22;22158;59.280;17.806;2022-07-29T04:25:42;12.10;99.90
35668;DHT22;22158;59.280;17.806;2022-07-29T04:28:08;12.20;99.90
35668;DHT22;22158;59.280;17.806;2022-07-29T04:30:35;12.30;99.90
35668;DHT22;22158;59.280;17.806;2022-07-29T04:33:03;12.30;99.90
35668;DHT22;22158;59.280;17.806;2022-07-29T04:35:30;12.40;99.90
35668;DHT22;22158;59.280;17.806;2022-07-29T04:37:56;12.50;99.90
35668;DHT22;22158;59.280;17.806;2022-07-29T04:40:21;12.60;99.90
35668;DHT22;22158;59.280;17.806;2022-07-29T04:42:47;12.70;99.90
35668;DHT22;22158;59.280;17.806;2022-07-29T04:45:13;12.80;99.90
35668;DHT22;22158;59.280;17.806;2022-07-29T04:47:38;12.90;99.90
35668;DHT22;22158;59.280;17.806;2022-07-29T04:50:05;12.90;99.90
35668;DHT22;22158;59.280;17.806;2022-07-29T04:52:32;13.00;99.90
35668;DHT22;22158;59.280;17.806;2022-07-29T04:54:58;13.10;99.90
35668;DHT22;22158;59.280;17.806;2022-07-29T04:57:23;13.20;99.90
35668;DHT22;22158;59.280;17.806;2022-07-29T04:59:49;13.20;99.90
35668;DHT22;22158;59.280;17.806;2022-07-29T05:02:15;13.30;99.90
35668;DHT22;22158;59.280;17.806;2022-07-29T05:04:40;13.40;99.90
35668;DHT22;22158;59.280;17.806;2022-07-29T05:07:06;13.50;99.90
35668;DHT22;22158;59.280;17.806;2022-07-29T05:09:32;13.60;99.90
35668;DHT22;22158;59.280;17.806;2022-07-29T05:11:58;13.70;99.90
35668;DHT22;22158;59.280;17.806;2022-07-29T05:14:23;13.70;99.90
35668;DHT22;22158;59.280;17.806;2022-07-29T05:16:49;13.80;99.90
35668;DHT22;22158;59.280;17.806;2022-07-29T05:19:17;13.90;99.90
35668;DHT22;22158;59.280;17.806;2022-07-29T05:21:44;14.00;99.90
35668;DHT22;22158;59.280;17.806;2022-07-29T05:24:10;14.10;99.90
35668;DHT22;22158;59.280;17.806;2022-07-29T05:26:35;14.10;99.90
35668;DHT22;22158;59.280;17.806;2022-07-29T05:29:01;14.10;99.90
35668;DHT22;22158;59.280;17.806;2022-07-29T05:31:27;14.20;99.90
35668;DHT22;22158;59.280;17.806;2022-07-29T05:33:52;14.30;99.90
35668;DHT22;22158;59.280;17.806;2022-07-29T05:36:18;14.40;99.90
35668;DHT22;22158;59.280;17.806;2022-07-29T05:38:44;14.40;99.90
35668;DHT22;22158;59.280;17.806;2022-07-29T05:41:09;14.50;99.90
35668;DHT22;22158;59.280;17.806;2022-07-29T05:43:35;14.60;99.90
35668;DHT22;22158;59.280;17.806;2022-07-29T05:46:01;14.70;99.90
35668;DHT22;22158;59.280;17.806;2022-07-29T05:48:27;14.80;99.90
35668;DHT22;22158;59.280;17.806;2022-07-29T05:50:53;14.90;99.90
35668;DHT22;22158;59.280;17.806;2022-07-29T05:53:19;15.00;99.90
35668;DHT22;22158;59.280;17.806;2022-07-29T05:55:45;15.00;99.90
35668;DHT22;22158;59.280;17.806;2022-07-29T05:58:11;15.10;99.90
35668;DHT22;22158;59.280;17.806;2022-07-29T06:00:36;15.20;99.90
35668;DHT22;22158;59.280;17.806;2022-07-29T06:03:02;15.40;99.90
35668;DHT22;22158;59.280;17.806;2022-07-29T06:05:28;15.50;99.90
35668;DHT22;22158;59.280;17.806;2022-07-29T06:07:53;15.60;99.90
35668;DHT22;22158;59.280;17.806;2022-07-29T06:10:19;15.70;99.90
35668;DHT22;22158;59.280;17.806;2022-07-29T06:12:45;15.80;99.90
35668;DHT22;22158;59.280;17.806;2022-07-29T06:15:11;16.00;99.90
35668;DHT22;22158;59.280;17.806;2022-07-29T06:17:36;16.00;99.90
35668;DHT22;22158;59.280;17.806;2022-07-29T06:20:03;16.10;99.90
35668;DHT22;22158;59.280;17.806;2022-07-29T06:22:28;16.10;99.90
35668;DHT22;22158;59.280;17.806;2022-07-29T06:24:54;16.20;99.90
35668;DHT22;22158;59.280;17.806;2022-07-29T06:27:20;16.20;98.80
35668;DHT22;22158;59.280;17.806;2022-07-29T06:29:46;16.30;96.30
35668;DHT22;22158;59.280;17.806;2022-07-29T06:32:11;16.30;96.80
35668;DHT22;22158;59.280;17.806;2022-07-29T06:34:37;16.40;97.00
35668;DHT22;22158;59.280;17.806;2022-07-29T06:37:09;16.40;96.00
35668;DHT22;22158;59.280;17.806;2022-07-29T06:39:35;16.40;95.50
35668;DHT22;22158;59.280;17.806;2022-07-29T06:42:02;16.50;95.80
35668;DHT22;22158;59.280;17.806;2022-07-29T06:44:28;16.50;95.10
35668;DHT22;22158;59.280;17.806;2022-07-29T06:46:55;16.60;94.40
35668;DHT22;22158;59.280;17.806;2022-07-29T06:49:21;16.60;94.10
35668;DHT22;22158;59.280;17.806;2022-07-29T06:51:47;16.70;94.50
35668;DHT22;22158;59.280;17.806;2022-07-29T06:54:13;16.80;93.60
35668;DHT22;22158;59.280;17.806;2022-07-29T06:56:39;16.80;94.50
35668;DHT22;22158;59.280;17.806;2022-07-29T06:59:07;17.00;95.60
35668;DHT22;22158;59.280;17.806;2022-07-29T07:01:34;17.00;95.60
35668;DHT22;22158;59.280;17.806;2022-07-29T07:04:00;17.00;94.40
35668;DHT22;22158;59.280;17.806;2022-07-29T07:06:26;17.10;94.40
35668;DHT22;22158;59.280;17.806;2022-07-29T07:08:51;17.20;93.40
35668;DHT22;22158;59.280;17.806;2022-07-29T07:11:17;17.20;94.30
35668;DHT22;22158;59.280;17.806;2022-07-29T07:13:43;17.30;94.80
35668;DHT22;22158;59.280;17.806;2022-07-29T07:16:08;17.40;94.10
35668;DHT22;22158;59.280;17.806;2022-07-29T07:18:34;17.50;93.20
35668;DHT22;22158;59.280;17.806;2022-07-29T07:21:00;17.60;93.50
35668;DHT22;22158;59.280;17.806;2022-07-29T07:23:26;17.70;94.00
35668;DHT22;22158;59.280;17.806;2022-07-29T07:25:52;17.80;93.50
35668;DHT22;22158;59.280;17.806;2022-07-29T07:28:18;17.80;92.70
35668;DHT22;22158;59.280;17.806;2022-07-29T07:30:45;17.90;93.00
35668;DHT22;22158;59.280;17.806;2022-07-29T07:33:10;17.90;93.30
35668;DHT22;22158;59.280;17.806;2022-07-29T07:35:36;18.10;92.80
35668;DHT22;22158;59.280;17.806;2022-07-29T07:38:02;18.10;93.50
35668;DHT22;22158;59.280;17.806;2022-07-29T07:40:27;18.20;93.70
35668;DHT22;22158;59.280;17.806;2022-07-29T07:42:53;18.20;93.40
35668;DHT22;22158;59.280;17.806;2022-07-29T07:45:19;18.20;93.70
35668;DHT22;22158;59.280;17.806;2022-07-29T07:47:44;18.30;92.10
35668;DHT22;22158;59.280;17.806;2022-07-29T07:50:11;18.30;92.40
35668;DHT22;22158;59.280;17.806;2022-07-29T07:52:47;18.40;92.50
35668;DHT22;22158;59.280;17.806;2022-07-29T07:55:14;18.60;93.20
35668;DHT22;22158;59.280;17.806;2022-07-29T07:57:39;18.70;92.60
35668;DHT22;22158;59.280;17.806;2022-07-29T08:00:06;18.70;92.20
35668;DHT22;22158;59.280;17.806;2022-07-29T08:02:32;18.70;90.60
35668;DHT22;22158;59.280;17.806;2022-07-29T08:04:57;18.70;91.20
35668;DHT22;22158;59.280;17.806;2022-07-29T08:07:24;18.90;91.10
35668;DHT22;22158;59.280;17.806;2022-07-29T08:09:50;19.00;91.70
35668;DHT22;22158;59.280;17.806;2022-07-29T08:12:16;19.10;91.10
35668;DHT22;22158;59.280;17.806;2022-07-29T08:14:42;19.20;90.80
35668;DHT22;22158;59.280;17.806;2022-07-29T08:17:07;19.20;90.60
35668;DHT22;22158;59.280;17.806;2022-07-29T08:19:33;19.40;88.60
35668;DHT22;22158;59.280;17.806;2022-07-29T08:21:59;19.50;90.40
35668;DHT22;22158;59.280;17.806;2022-07-29T08:24:24;19.50;89.70
35668;DHT22;22158;59.280;17.806;2022-07-29T08:27:12;19.50;86.70
35668;DHT22;22158;59.280;17.806;2022-07-29T08:29:38;19.60;90.40
35668;DHT22;22158;59.280;17.806;2022-07-29T08:32:04;19.70;89.50
35668;DHT22;22158;59.280;17.806;2022-07-29T08:34:30;19.80;86.30
35668;DHT22;22158;59.280;17.806;2022-07-29T08:36:56;19.90;85.40
35668;DHT22;22158;59.280;17.806;2022-07-29T08:39:22;19.90;88.10
35668;DHT22;22158;59.280;17.806;2022-07-29T08:41:49;20.00;83.70
35668;DHT22;22158;59.280;17.806;2022-07-29T08:44:17;20.00;83.60
35668;DHT22;22158;59.280;17.806;2022-07-29T08:46:43;20.10;84.10
35668;DHT22;22158;59.280;17.806;2022-07-29T08:49:09;20.00;80.60
35668;DHT22;22158;59.280;17.806;2022-07-29T08:51:36;20.00;84.00
35668;DHT22;22158;59.280;17.806;2022-07-29T08:54:02;20.10;83.80
35668;DHT22;22158;59.280;17.806;2022-07-29T08:56:29;20.30;86.40
35668;DHT22;22158;59.280;17.806;2022-07-29T08:58:57;20.50;84.70
35668;DHT22;22158;59.280;17.806;2022-07-29T09:01:25;20.50;83.80
35668;DHT22;22158;59.280;17.806;2022-07-29T09:03:55;20.60;82.80
35668;DHT22;22158;59.280;17.806;2022-07-29T09:06:21;20.60;84.40
35668;DHT22;22158;59.280;17.806;2022-07-29T09:08:48;20.60;82.90
35668;DHT22;22158;59.280;17.806;2022-07-29T09:11:14;20.60;80.20
35668;DHT22;22158;59.280;17.806;2022-07-29T09:13:40;20.70;83.40
35668;DHT22;22158;59.280;17.806;2022-07-29T09:16:06;20.90;82.10
35668;DHT22;22158;59.280;17.806;2022-07-29T09:18:43;21.00;82.90
35668;DHT22;22158;59.280;17.806;2022-07-29T09:21:11;21.20;85.30
35668;DHT22;22158;59.280;17.806;2022-07-29T09:24:08;21.30;81.70
35668;DHT22;22158;59.280;17.806;2022-07-29T09:26:39;21.40;87.00
35668;DHT22;22158;59.280;17.806;2022-07-29T09:29:16;21.40;79.30
35668;DHT22;22158;59.280;17.806;2022-07-29T09:31:44;21.20;81.10
35668;DHT22;22158;59.280;17.806;2022-07-29T09:34:11;21.20;81.40
35668;DHT22;22158;59.280;17.806;2022-07-29T09:36:42;21.30;83.20
35668;DHT22;22158;59.280;17.806;2022-07-29T09:39:08;21.30;79.30
35668;DHT22;22158;59.280;17.806;2022-07-29T09:41:44;21.20;80.60
35668;DHT22;22158;59.280;17.806;2022-07-29T09:44:10;21.30;79.50
35668;DHT22;22158;59.280;17.806;2022-07-29T09:46:36;21.30;81.10
35668;DHT22;22158;59.280;17.806;2022-07-29T09:49:06;21.60;77.80
35668;DHT22;22158;59.280;17.806;2022-07-29T09:51:32;21.50;78.10
35668;DHT22;22158;59.280;17.806;2022-07-29T09:53:58;21.50;79.50
35668;DHT22;22158;59.280;17.806;2022-07-29T09:56:39;21.60;77.60
35668;DHT22;22158;59.280;17.806;2022-07-29T09:59:07;21.60;82.20
35668;DHT22;22158;59.280;17.806;2022-07-29T10:01:32;21.70;82.50
35668;DHT22;22158;59.280;17.806;2022-07-29T10:03:58;21.70;80.90
35668;DHT22;22158;59.280;17.806;2022-07-29T10:06:24;21.90;80.80
35668;DHT22;22158;59.280;17.806;2022-07-29T10:08:50;22.10;79.10
35668;DHT22;22158;59.280;17.806;2022-07-29T10:11:18;22.20;77.90
35668;DHT22;22158;59.280;17.806;2022-07-29T10:13:45;22.20;76.10
35668;DHT22;22158;59.280;17.806;2022-07-29T10:16:12;22.30;79.50
35668;DHT22;22158;59.280;17.806;2022-07-29T10:18:39;22.60;80.50
35668;DHT22;22158;59.280;17.806;2022-07-29T10:21:06;22.70;74.60
35668;DHT22;22158;59.280;17.806;2022-07-29T10:23:34;22.80;75.60
35668;DHT22;22158;59.280;17.806;2022-07-29T10:26:00;22.80;74.50
35668;DHT22;22158;59.280;17.806;2022-07-29T10:28:26;22.90;73.50
35668;DHT22;22158;59.280;17.806;2022-07-29T10:30:57;23.00;76.10
35668;DHT22;22158;59.280;17.806;2022-07-29T10:44:20;23.50;74.10
35668;DHT22;22158;59.280;17.806;2022-07-29T10:46:46;23.40;73.30
35668;DHT22;22158;59.280;17.806;2022-07-29T10:49:17;23.60;72.80
35668;DHT22;22158;59.280;17.806;2022-07-29T10:52:02;23.80;76.10
35668;DHT22;22158;59.280;17.806;2022-07-29T10:54:47;23.60;71.10
35668;DHT22;22158;59.280;17.806;2022-07-29T10:57:26;23.20;71.60
35668;DHT22;22158;59.280;17.806;2022-07-29T11:07:27;23.10;71.70
35668;DHT22;22158;59.280;17.806;2022-07-29T11:10:22;22.90;75.60
35668;DHT22;22158;59.280;17.806;2022-07-29T11:12:48;23.20;73.40
35668;DHT22;22158;59.280;17.806;2022-07-29T11:15:16;23.40;70.90
35668;DHT22;22158;59.280;17.806;2022-07-29T11:23:01;23.50;69.20
35668;DHT22;22158;59.280;17.806;2022-07-29T11:25:42;23.40;73.30
35668;DHT22;22158;59.280;17.806;2022-07-29T11:28:13;23.20;69.40
35668;DHT22;22158;59.280;17.806;2022-07-29T11:30:51;23.20;69.60
35668;DHT22;22158;59.280;17.806;2022-07-29T11:33:31;23.30;70.90
35668;DHT22;22158;59.280;17.806;2022-07-29T11:36:15;23.60;70.80
35668;DHT22;22158;59.280;17.806;2022-07-29T11:38:41;23.70;69.00
35668;DHT22;22158;59.280;17.806;2022-07-29T11:44:10;24.20;71.20
35668;DHT22;22158;59.280;17.806;2022-07-29T11:46:48;24.40;68.90
35668;DHT22;22158;59.280;17.806;2022-07-29T11:49:22;24.70;67.50
35668;DHT22;22158;59.280;17.806;2022-07-29T11:51:57;24.70;65.00
35668;DHT22;22158;59.280;17.806;2022-07-29T11:54:35;24.90;62.80
35668;DHT22;22158;59.280;17.806;2022-07-29T11:57:02;25.00;62.40
35668;DHT22;22158;59.280;17.806;2022-07-29T11:59:28;25.10;62.00
35668;DHT22;22158;59.280;17.806;2022-07-29T12:01:56;25.30;68.60
35668;DHT22;22158;59.280;17.806;2022-07-29T12:04:22;25.30;61.30
35668;DHT22;22158;59.280;17.806;2022-07-29T12:06:51;25.60;65.80
35668;DHT22;22158;59.280;17.806;2022-07-29T12:09:17;25.70;61.40
35668;DHT22;22158;59.280;17.806;2022-07-29T12:11:43;25.80;64.00
35668;DHT22;22158;59.280;17.806;2022-07-29T12:14:09;25.70;59.50
35668;DHT22;22158;59.280;17.806;2022-07-29T12:16:35;25.90;59.80
35668;DHT22;22158;59.280;17.806;2022-07-29T12:19:03;26.00;59.20
35668;DHT22;22158;59.280;17.806;2022-07-29T12:21:54;26.20;61.30
35668;DHT22;22158;59.280;17.806;2022-07-29T12:24:20;26.20;58.00
35668;DHT22;22158;59.280;17.806;2022-07-29T12:26:58;26.30;58.70
35668;DHT22;22158;59.280;17.806;2022-07-29T12:29:24;26.60;59.10
35668;DHT22;22158;59.280;17.806;2022-07-29T12:31:53;26.70;57.80
35668;DHT22;22158;59.280;17.806;2022-07-29T12:34:22;26.70;58.50
35668;DHT22;22158;59.280;17.806;2022-07-29T12:36:48;26.90;59.50
35668;DHT22;22158;59.280;17.806;2022-07-29T12:39:16;26.90;56.90
35668;DHT22;22158;59.280;17.806;2022-07-29T12:41:43;26.80;57.60
35668;DHT22;22158;59.280;17.806;2022-07-29T12:44:09;26.80;55.40
35668;DHT22;22158;59.280;17.806;2022-07-29T12:46:35;26.90;55.20
35668;DHT22;22158;59.280;17.806;2022-07-29T12:49:01;27.20;56.60
35668;DHT22;22158;59.280;17.806;2022-07-29T12:51:32;27.20;59.50
35668;DHT22;22158;59.280;17.806;2022-07-29T12:54:16;27.30;57.60
35668;DHT22;22158;59.280;17.806;2022-07-29T12:56:43;27.00;56.10
35668;DHT22;22158;59.280;17.806;2022-07-29T12:59:19;26.90;57.50
35668;DHT22;22158;59.280;17.806;2022-07-29T13:01:47;27.20;55.90
35668;DHT22;22158;59.280;17.806;2022-07-29T13:07:00;27.40;57.70
35668;DHT22;22158;59.280;17.806;2022-07-29T13:09:45;27.40;55.70
35668;DHT22;22158;59.280;17.806;2022-07-29T13:12:12;27.40;54.50
35668;DHT22;22158;59.280;17.806;2022-07-29T13:14:46;27.10;53.50
35668;DHT22;22158;59.280;17.806;2022-07-29T13:17:18;27.00;53.40
35668;DHT22;22158;59.280;17.806;2022-07-29T13:19:46;27.30;55.60
35668;DHT22;22158;59.280;17.806;2022-07-29T13:22:21;27.30;53.50
35668;DHT22;22158;59.280;17.806;2022-07-29T13:24:55;27.50;52.60
35668;DHT22;22158;59.280;17.806;2022-07-29T13:27:26;27.60;53.00
35668;DHT22;22158;59.280;17.806;2022-07-29T13:29:53;27.50;53.30
35668;DHT22;22158;59.280;17.806;2022-07-29T13:32:22;27.60;54.30
35668;DHT22;22158;59.280;17.806;2022-07-29T13:34:49;27.40;52.50
35668;DHT22;22158;59.280;17.806;2022-07-29T13:37:14;27.60;56.90
35668;DHT22;22158;59.280;17.806;2022-07-29T13:39:40;27.80;58.10
35668;DHT22;22158;59.280;17.806;2022-07-29T13:42:07;27.70;54.30
35668;DHT22;22158;59.280;17.806;2022-07-29T13:44:33;28.10;53.40
35668;DHT22;22158;59.280;17.806;2022-07-29T13:46:58;28.10;56.40
35668;DHT22;22158;59.280;17.806;2022-07-29T13:49:25;28.20;53.70
35668;DHT22;22158;59.280;17.806;2022-07-29T13:51:51;28.20;53.70
35668;DHT22;22158;59.280;17.806;2022-07-29T13:54:16;27.90;50.80
35668;DHT22;22158;59.280;17.806;2022-07-29T13:56:42;27.90;51.90
35668;DHT22;22158;59.280;17.806;2022-07-29T13:59:08;28.00;51.60
35668;DHT22;22158;59.280;17.806;2022-07-29T14:01:37;28.00;52.90
35668;DHT22;22158;59.280;17.806;2022-07-29T14:04:04;28.10;52.30
35668;DHT22;22158;59.280;17.806;2022-07-29T14:06:29;28.40;55.50
35668;DHT22;22158;59.280;17.806;2022-07-29T14:08:55;28.10;51.00
35668;DHT22;22158;59.280;17.806;2022-07-29T14:11:21;27.40;51.90
35668;DHT22;22158;59.280;17.806;2022-07-29T14:13:46;27.50;52.60
35668;DHT22;22158;59.280;17.806;2022-07-29T14:16:12;27.70;56.00
35668;DHT22;22158;59.280;17.806;2022-07-29T14:18:38;27.80;51.90
35668;DHT22;22158;59.280;17.806;2022-07-29T14:21:03;27.90;50.70
35668;DHT22;22158;59.280;17.806;2022-07-29T14:23:29;28.00;50.40
35668;DHT22;22158;59.280;17.806;2022-07-29T14:25:55;28.20;52.20
35668;DHT22;22158;59.280;17.806;2022-07-29T14:28:20;28.40;52.30
35668;DHT22;22158;59.280;17.806;2022-07-29T14:30:46;28.20;49.20
35668;DHT22;22158;59.280;17.806;2022-07-29T14:33:12;28.30;50.90
35668;DHT22;22158;59.280;17.806;2022-07-29T14:35:38;28.50;51.80
35668;DHT22;22158;59.280;17.806;2022-07-29T14:38:04;28.20;49.30
35668;DHT22;22158;59.280;17.806;2022-07-29T14:40:30;28.40;51.60
35668;DHT22;22158;59.280;17.806;2022-07-29T14:42:55;28.50;49.20
35668;DHT22;22158;59.280;17.806;2022-07-29T14:45:21;28.70;50.10
35668;DHT22;22158;59.280;17.806;2022-07-29T14:47:48;29.00;50.10
35668;DHT22;22158;59.280;17.806;2022-07-29T14:50:16;29.20;49.00
35668;DHT22;22158;59.280;17.806;2022-07-29T14:52:41;29.50;50.30
35668;DHT22;22158;59.280;17.806;2022-07-29T14:55:07;29.90;51.70
35668;DHT22;22158;59.280;17.806;2022-07-29T14:57:33;29.70;49.50
35668;DHT22;22158;59.280;17.806;2022-07-29T14:59:59;29.90;50.20
35668;DHT22;22158;59.280;17.806;2022-07-29T15:02:24;30.10;51.70
35668;DHT22;22158;59.280;17.806;2022-07-29T15:04:50;30.20;49.00
35668;DHT22;22158;59.280;17.806;2022-07-29T15:07:16;30.10;48.90
35668;DHT22;22158;59.280;17.806;2022-07-29T15:09:42;30.40;52.00
35668;DHT22;22158;59.280;17.806;2022-07-29T15:12:10;30.40;49.10
35668;DHT22;22158;59.280;17.806;2022-07-29T15:14:36;30.80;49.50
35668;DHT22;22158;59.280;17.806;2022-07-29T15:17:02;30.40;45.90
35668;DHT22;22158;59.280;17.806;2022-07-29T15:19:27;30.70;50.30
35668;DHT22;22158;59.280;17.806;2022-07-29T15:21:53;30.60;46.90
35668;DHT22;22158;59.280;17.806;2022-07-29T15:24:19;30.60;47.40
35668;DHT22;22158;59.280;17.806;2022-07-29T15:26:45;30.10;46.80
35668;DHT22;22158;59.280;17.806;2022-07-29T15:29:12;29.30;46.70
35668;DHT22;22158;59.280;17.806;2022-07-29T15:31:37;28.70;49.60
35668;DHT22;22158;59.280;17.806;2022-07-29T15:34:03;28.40;49.80
35668;DHT22;22158;59.280;17.806;2022-07-29T15:36:30;28.50;52.50
35668;DHT22;22158;59.280;17.806;2022-07-29T15:38:56;28.40;49.90
35668;DHT22;22158;59.280;17.806;2022-07-29T15:41:21;28.20;50.60
35668;DHT22;22158;59.280;17.806;2022-07-29T15:43:47;28.00;51.80
35668;DHT22;22158;59.280;17.806;2022-07-29T15:46:15;27.70;53.80
35668;DHT22;22158;59.280;17.806;2022-07-29T15:49:00;27.40;56.10
35668;DHT22;22158;59.280;17.806;2022-07-29T15:51:26;27.10;56.80
35668;DHT22;22158;59.280;17.806;2022-07-29T15:53:51;26.70;57.20
35668;DHT22;22158;59.280;17.806;2022-07-29T15:56:17;26.70;59.80
35668;DHT22;22158;59.280;17.806;2022-07-29T15:58:43;27.10;59.40
35668;DHT22;22158;59.280;17.806;2022-07-29T16:01:08;27.30;58.70